sensor_id;sensor_type;location;lat;lon;timestamp;P1;durP1;ratioP1;P2;durP2;ratioP2
21697;SDS011;11010;49.548;11.926;2022-08-11T00:00:00;7.55;;;2.03;;
21697;SDS011;11010;49.548;11.926;2022-08-11T00:02:40;7.32;;;2.20;;
21697;SDS011;11010;49.548;11.926;2022-08-11T00:05:12;5.88;;;1.92;;
21697;SDS011;11010;49.548;11.926;2022-08-11T00:07:47;5.80;;;1.90;;
21697;SDS011;11010;49.548;11.926;2022-08-11T00:10:19;6.45;;;2.15;;
21697;SDS011;11010;49.548;11.926;2022-08-11T00:12:52;6.35;;;2.00;;
21697;SDS011;11010;49.548;11.926;2022-08-11T00:15:25;6.47;;;2.00;;
21697;SDS011;11010;49.548;11.926;2022-08-11T00:17:58;6.75;;;2.10;;
21697;SDS011;11010;49.548;11.926;2022-08-11T00:20:30;6.55;;;2.00;;
21697;SDS011;11010;49.548;11.926;2022-08-11T00:23:05;7.63;;;2.25;;
21697;SDS011;11010;49.548;11.926;2022-08-11T00:25:37;6.57;;;1.80;;
21697;SDS011;11010;49.548;11.926;2022-08-11T00:30:59;6.80;;;2.10;;
21697;SDS011;11010;49.548;11.926;2022-08-11T00:33:37;6.60;;;2.00;;
21697;SDS011;11010;49.548;11.926;2022-08-11T00:36:12;7.18;;;2.08;;
21697;SDS011;11010;49.548;11.926;2022-08-11T00:38:42;7.75;;;2.20;;
21697;SDS011;11010;49.548;11.926;2022-08-11T01:09:27;7.88;;;2.20;;
21697;SDS011;11010;49.548;11.926;2022-08-11T01:27:23;6.07;;;1.80;;
21697;SDS011;11010;49.548;11.926;2022-08-11T01:30:17;7.32;;;2.05;;
21697;SDS011;11010;49.548;11.926;2022-08-11T01:41:50;6.88;;;1.83;;
21697;SDS011;11010;49.548;11.926;2022-08-11T01:45:15;7.63;;;1.90;;
21697;SDS011;11010;49.548;11.926;2022-08-11T02:04:32;6.15;;;1.77;;
21697;SDS011;11010;49.548;11.926;2022-08-11T02:08:08;6.72;;;1.92;;
21697;SDS011;11010;49.548;11.926;2022-08-11T02:10:20;6.10;;;2.00;;
21697;SDS011;11010;49.548;11.926;2022-08-11T02:16:18;7.22;;;2.08;;
21697;SDS011;11010;49.548;11.926;2022-08-11T02:18:51;6.82;;;2.05;;
21697;SDS011;11010;49.548;11.926;2022-08-11T02:21:54;6.35;;;1.95;;
21697;SDS011;11010;49.548;11.926;2022-08-11T02:25:00;8.07;;;2.42;;
21697;SDS011;11010;49.548;11.926;2022-08-11T02:27:44;7.22;;;1.98;;
21697;SDS011;11010;49.548;11.926;2022-08-11T02:30:19;7.18;;;2.25;;
21697;SDS011;11010;49.548;11.926;2022-08-11T02:33:00;5.95;;;1.90;;
21697;SDS011;11010;49.548;11.926;2022-08-11T02:35:57;8.73;;;2.15;;
21697;SDS011;11010;49.548;11.926;2022-08-11T02:41:49;6.97;;;2.08;;
21697;SDS011;11010;49.548;11.926;2022-08-11T02:59:26;6.78;;;2.05;;
21697;SDS011;11010;49.548;11.926;2022-08-11T03:14:05;7.63;;;2.20;;
21697;SDS011;11010;49.548;11.926;2022-08-11T03:17:13;6.80;;;2.00;;
21697;SDS011;11010;49.548;11.926;2022-08-11T03:20:10;6.88;;;2.17;;
21697;SDS011;11010;49.548;11.926;2022-08-11T03:22:54;6.38;;;2.00;;
21697;SDS011;11010;49.548;11.926;2022-08-11T03:28:39;7.60;;;1.85;;
21697;SDS011;11010;49.548;11.926;2022-08-11T03:33:56;7.28;;;2.10;;
21697;SDS011;11010;49.548;11.926;2022-08-11T03:45:24;7.25;;;2.10;;
21697;SDS011;11010;49.548;11.926;2022-08-11T03:47:56;6.78;;;2.20;;
21697;SDS011;11010;49.548;11.926;2022-08-11T04:25:04;7.50;;;2.17;;
21697;SDS011;11010;49.548;11.926;2022-08-11T04:27:52;6.70;;;2.10;;
21697;SDS011;11010;49.548;11.926;2022-08-11T04:33:58;7.80;;;2.28;;
21697;SDS011;11010;49.548;11.926;2022-08-11T04:48:52;6.97;;;2.20;;
21697;SDS011;11010;49.548;11.926;2022-08-11T04:58:21;7.35;;;2.30;;
21697;SDS011;11010;49.548;11.926;2022-08-11T05:07:17;7.10;;;2.33;;
21697;SDS011;11010;49.548;11.926;2022-08-11T05:15:33;7.22;;;2.38;;
21697;SDS011;11010;49.548;11.926;2022-08-11T05:18:29;7.32;;;2.13;;
21697;SDS011;11010;49.548;11.926;2022-08-11T05:21:16;8.00;;;2.53;;
21697;SDS011;11010;49.548;11.926;2022-08-11T05:24:16;6.60;;;2.17;;
21697;SDS011;11010;49.548;11.926;2022-08-11T05:27:07;7.93;;;2.10;;
21697;SDS011;11010;49.548;11.926;2022-08-11T05:29:57;7.22;;;2.17;;
21697;SDS011;11010;49.548;11.926;2022-08-11T05:32:58;7.90;;;2.40;;
21697;SDS011;11010;49.548;11.926;2022-08-11T05:35:55;6.65;;;2.20;;
21697;SDS011;11010;49.548;11.926;2022-08-11T05:42:16;6.65;;;2.20;;
21697;SDS011;11010;49.548;11.926;2022-08-11T05:45:03;7.63;;;2.25;;
21697;SDS011;11010;49.548;11.926;2022-08-11T05:48:16;7.40;;;2.08;;
21697;SDS011;11010;49.548;11.926;2022-08-11T05:51:03;7.40;;;2.20;;
21697;SDS011;11010;49.548;11.926;2022-08-11T05:53:56;7.38;;;2.30;;
21697;SDS011;11010;49.548;11.926;2022-08-11T05:56:58;8.80;;;2.20;;
21697;SDS011;11010;49.548;11.926;2022-08-11T05:59:27;6.40;;;2.20;;
21697;SDS011;11010;49.548;11.926;2022-08-11T06:02:01;7.63;;;2.28;;
21697;SDS011;11010;49.548;11.926;2022-08-11T06:04:31;7.07;;;2.15;;
21697;SDS011;11010;49.548;11.926;2022-08-11T06:07:07;7.90;;;2.28;;
21697;SDS011;11010;49.548;11.926;2022-08-11T06:09:45;6.60;;;2.10;;
21697;SDS011;11010;49.548;11.926;2022-08-11T06:12:36;7.05;;;2.20;;
21697;SDS011;11010;49.548;11.926;2022-08-11T06:15:04;7.50;;;2.38;;
21697;SDS011;11010;49.548;11.926;2022-08-11T06:17:44;7.15;;;2.13;;
21697;SDS011;11010;49.548;11.926;2022-08-11T06:20:13;8.20;;;2.60;;
21697;SDS011;11010;49.548;11.926;2022-08-11T06:22:43;7.57;;;2.30;;
21697;SDS011;11010;49.548;11.926;2022-08-11T06:25:18;7.35;;;2.50;;
21697;SDS011;11010;49.548;11.926;2022-08-11T06:27:47;6.15;;;2.05;;
21697;SDS011;11010;49.548;11.926;2022-08-11T06:33:13;7.53;;;2.10;;
21697;SDS011;11010;49.548;11.926;2022-08-11T06:41:32;7.00;;;2.38;;
21697;SDS011;11010;49.548;11.926;2022-08-11T06:46:40;6.95;;;2.28;;
21697;SDS011;11010;49.548;11.926;2022-08-11T06:49:18;8.05;;;2.22;;
21697;SDS011;11010;49.548;11.926;2022-08-11T06:52:09;7.25;;;2.35;;
21697;SDS011;11010;49.548;11.926;2022-08-11T06:55:00;6.85;;;2.40;;
21697;SDS011;11010;49.548;11.926;2022-08-11T06:58:21;7.28;;;2.38;;
21697;SDS011;11010;49.548;11.926;2022-08-11T07:01:13;7.70;;;2.50;;
21697;SDS011;11010;49.548;11.926;2022-08-11T07:03:46;8.05;;;2.22;;
21697;SDS011;11010;49.548;11.926;2022-08-11T07:12:22;9.35;;;2.40;;
21697;SDS011;11010;49.548;11.926;2022-08-11T07:15:26;9.10;;;2.28;;
21697;SDS011;11010;49.548;11.926;2022-08-11T07:18:33;9.25;;;2.33;;
21697;SDS011;11010;49.548;11.926;2022-08-11T07:21:31;7.15;;;2.30;;
21697;SDS011;11010;49.548;11.926;2022-08-11T07:24:36;7.63;;;2.40;;
21697;SDS011;11010;49.548;11.926;2022-08-11T07:27:35;7.20;;;2.30;;
21697;SDS011;11010;49.548;11.926;2022-08-11T07:30:31;7.75;;;2.35;;
21697;SDS011;11010;49.548;11.926;2022-08-11T07:33:03;7.57;;;2.60;;
21697;SDS011;11010;49.548;11.926;2022-08-11T07:38:04;6.90;;;2.30;;
21697;SDS011;11010;49.548;11.926;2022-08-11T07:40:34;9.38;;;2.17;;
21697;SDS011;11010;49.548;11.926;2022-08-11T07:43:03;6.90;;;2.00;;
21697;SDS011;11010;49.548;11.926;2022-08-11T07:45:32;7.35;;;2.33;;
21697;SDS011;11010;49.548;11.926;2022-08-11T07:48:19;7.82;;;2.10;;
21697;SDS011;11010;49.548;11.926;2022-08-11T07:51:05;6.68;;;2.22;;
21697;SDS011;11010;49.548;11.926;2022-08-11T07:53:52;7.45;;;2.22;;
21697;SDS011;11010;49.548;11.926;2022-08-11T07:56:36;6.45;;;2.10;;
21697;SDS011;11010;49.548;11.926;2022-08-11T07:59:25;7.80;;;2.50;;
21697;SDS011;11010;49.548;11.926;2022-08-11T08:02:41;9.13;;;2.58;;
21697;SDS011;11010;49.548;11.926;2022-08-11T08:05:28;6.38;;;2.13;;
21697;SDS011;11010;49.548;11.926;2022-08-11T08:08:15;8.63;;;2.20;;
21697;SDS011;11010;49.548;11.926;2022-08-11T08:11:02;8.05;;;2.28;;
21697;SDS011;11010;49.548;11.926;2022-08-11T08:13:53;7.72;;;2.20;;
21697;SDS011;11010;49.548;11.926;2022-08-11T08:16:40;6.47;;;2.05;;
21697;SDS011;11010;49.548;11.926;2022-08-11T08:19:27;8.40;;;2.20;;
21697;SDS011;11010;49.548;11.926;2022-08-11T08:21:55;8.30;;;2.30;;
21697;SDS011;11010;49.548;11.926;2022-08-11T08:24:43;6.97;;;2.00;;
21697;SDS011;11010;49.548;11.926;2022-08-11T08:27:12;8.75;;;2.20;;
21697;SDS011;11010;49.548;11.926;2022-08-11T08:29:40;5.88;;;1.92;;
21697;SDS011;11010;49.548;11.926;2022-08-11T08:32:28;8.07;;;2.40;;
21697;SDS011;11010;49.548;11.926;2022-08-11T08:34:57;8.27;;;2.05;;
21697;SDS011;11010;49.548;11.926;2022-08-11T08:37:25;6.43;;;1.95;;
21697;SDS011;11010;49.548;11.926;2022-08-11T08:40:13;7.68;;;2.20;;
21697;SDS011;11010;49.548;11.926;2022-08-11T08:42:44;6.80;;;2.05;;
21697;SDS011;11010;49.548;11.926;2022-08-11T08:45:21;6.30;;;1.95;;
21697;SDS011;11010;49.548;11.926;2022-08-11T08:48:12;7.15;;;2.08;;
21697;SDS011;11010;49.548;11.926;2022-08-11T08:51:00;6.53;;;1.80;;
21697;SDS011;11010;49.548;11.926;2022-08-11T08:53:49;6.20;;;2.00;;
21697;SDS011;11010;49.548;11.926;2022-08-11T08:56:24;5.85;;;1.73;;
21697;SDS011;11010;49.548;11.926;2022-08-11T08:58:54;7.10;;;2.00;;
21697;SDS011;11010;49.548;11.926;2022-08-11T09:01:26;7.85;;;1.92;;
21697;SDS011;11010;49.548;11.926;2022-08-11T09:03:58;6.93;;;1.70;;
21697;SDS011;11010;49.548;11.926;2022-08-11T09:06:36;6.32;;;1.50;;
21697;SDS011;11010;49.548;11.926;2022-08-11T09:09:06;10.15;;;1.90;;
21697;SDS011;11010;49.548;11.926;2022-08-11T09:11:35;5.38;;;1.60;;
21697;SDS011;11010;49.548;11.926;2022-08-11T09:14:16;5.78;;;1.75;;
21697;SDS011;11010;49.548;11.926;2022-08-11T09:16:46;6.72;;;1.85;;
21697;SDS011;11010;49.548;11.926;2022-08-11T09:19:17;6.63;;;2.00;;
21697;SDS011;11010;49.548;11.926;2022-08-11T09:21:47;6.43;;;1.70;;
21697;SDS011;11010;49.548;11.926;2022-08-11T09:24:35;5.90;;;1.90;;
21697;SDS011;11010;49.548;11.926;2022-08-11T09:27:23;7.50;;;1.83;;
21697;SDS011;11010;49.548;11.926;2022-08-11T09:29:53;7.68;;;1.80;;
21697;SDS011;11010;49.548;11.926;2022-08-11T09:32:21;6.60;;;1.80;;
21697;SDS011;11010;49.548;11.926;2022-08-11T09:34:50;7.20;;;1.95;;
21697;SDS011;11010;49.548;11.926;2022-08-11T09:37:20;6.82;;;1.90;;
21697;SDS011;11010;49.548;11.926;2022-08-11T09:40:22;5.95;;;1.80;;
21697;SDS011;11010;49.548;11.926;2022-08-11T09:42:58;7.75;;;2.08;;
21697;SDS011;11010;49.548;11.926;2022-08-11T09:45:48;6.03;;;1.60;;
21697;SDS011;11010;49.548;11.926;2022-08-11T09:48:21;6.70;;;1.73;;
21697;SDS011;11010;49.548;11.926;2022-08-11T09:50:51;8.32;;;1.90;;
21697;SDS011;11010;49.548;11.926;2022-08-11T09:53:24;7.13;;;1.70;;
21697;SDS011;11010;49.548;11.926;2022-08-11T09:56:04;6.13;;;1.70;;
21697;SDS011;11010;49.548;11.926;2022-08-11T09:59:02;7.10;;;1.90;;
21697;SDS011;11010;49.548;11.926;2022-08-11T10:01:36;7.13;;;1.80;;
21697;SDS011;11010;49.548;11.926;2022-08-11T10:04:24;6.40;;;1.80;;
21697;SDS011;11010;49.548;11.926;2022-08-11T10:07:14;5.70;;;1.60;;
21697;SDS011;11010;49.548;11.926;2022-08-11T10:15:01;7.57;;;2.10;;
21697;SDS011;11010;49.548;11.926;2022-08-11T10:17:56;6.22;;;1.88;;
21697;SDS011;11010;49.548;11.926;2022-08-11T10:20:47;4.97;;;1.50;;
21697;SDS011;11010;49.548;11.926;2022-08-11T10:23:17;5.82;;;1.60;;
21697;SDS011;11010;49.548;11.926;2022-08-11T10:26:26;6.75;;;1.80;;
21697;SDS011;11010;49.548;11.926;2022-08-11T10:29:13;6.50;;;1.60;;
21697;SDS011;11010;49.548;11.926;2022-08-11T10:32:10;6.20;;;2.03;;
21697;SDS011;11010;49.548;11.926;2022-08-11T10:35:12;5.80;;;1.75;;
21697;SDS011;11010;49.548;11.926;2022-08-11T10:37:42;6.80;;;1.70;;
21697;SDS011;11010;49.548;11.926;2022-08-11T10:40:33;6.20;;;1.67;;
21697;SDS011;11010;49.548;11.926;2022-08-11T10:43:01;6.65;;;1.70;;
21697;SDS011;11010;49.548;11.926;2022-08-11T10:45:33;6.18;;;1.80;;
21697;SDS011;11010;49.548;11.926;2022-08-11T10:48:27;5.45;;;1.60;;
21697;SDS011;11010;49.548;11.926;2022-08-11T10:50:56;6.60;;;1.90;;
21697;SDS011;11010;49.548;11.926;2022-08-11T10:53:41;5.95;;;1.63;;
21697;SDS011;11010;49.548;11.926;2022-08-11T10:56:31;7.00;;;1.65;;
21697;SDS011;11010;49.548;11.926;2022-08-11T10:59:20;5.55;;;1.58;;
21697;SDS011;11010;49.548;11.926;2022-08-11T11:01:50;5.88;;;1.52;;
21697;SDS011;11010;49.548;11.926;2022-08-11T11:04:23;6.15;;;1.75;;
21697;SDS011;11010;49.548;11.926;2022-08-11T11:07:10;5.78;;;1.50;;
21697;SDS011;11010;49.548;11.926;2022-08-11T11:09:50;6.32;;;1.90;;
21697;SDS011;11010;49.548;11.926;2022-08-11T11:15:23;5.32;;;1.60;;
21697;SDS011;11010;49.548;11.926;2022-08-11T11:29:06;6.60;;;1.60;;
21697;SDS011;11010;49.548;11.926;2022-08-11T11:32:05;7.60;;;1.60;;
21697;SDS011;11010;49.548;11.926;2022-08-11T11:35:03;5.28;;;1.50;;
21697;SDS011;11010;49.548;11.926;2022-08-11T11:37:52;6.63;;;1.73;;
21697;SDS011;11010;49.548;11.926;2022-08-11T11:40:31;6.07;;;1.60;;
21697;SDS011;11010;49.548;11.926;2022-08-11T11:42:59;6.72;;;1.50;;
21697;SDS011;11010;49.548;11.926;2022-08-11T11:45:28;5.45;;;1.48;;
21697;SDS011;11010;49.548;11.926;2022-08-11T11:47:56;5.65;;;1.48;;
21697;SDS011;11010;49.548;11.926;2022-08-11T11:53:04;6.18;;;1.70;;
21697;SDS011;11010;49.548;11.926;2022-08-11T11:55:34;5.47;;;1.33;;
21697;SDS011;11010;49.548;11.926;2022-08-11T11:58:02;6.05;;;1.67;;
21697;SDS011;11010;49.548;11.926;2022-08-11T12:00:50;4.88;;;1.42;;
21697;SDS011;11010;49.548;11.926;2022-08-11T12:03:38;7.13;;;1.70;;
21697;SDS011;11010;49.548;11.926;2022-08-11T12:06:07;6.97;;;1.88;;
21697;SDS011;11010;49.548;11.926;2022-08-11T12:08:35;6.43;;;1.70;;
21697;SDS011;11010;49.548;11.926;2022-08-11T12:11:05;7.68;;;1.95;;
21697;SDS011;11010;49.548;11.926;2022-08-11T12:13:53;6.00;;;1.70;;
21697;SDS011;11010;49.548;11.926;2022-08-11T12:16:23;9.40;;;1.73;;
21697;SDS011;11010;49.548;11.926;2022-08-11T12:19:05;6.07;;;1.60;;
21697;SDS011;11010;49.548;11.926;2022-08-11T12:21:39;5.93;;;1.70;;
21697;SDS011;11010;49.548;11.926;2022-08-11T12:24:27;5.07;;;1.55;;
21697;SDS011;11010;49.548;11.926;2022-08-11T12:27:14;5.75;;;1.60;;
21697;SDS011;11010;49.548;11.926;2022-08-11T12:29:58;6.38;;;1.75;;
21697;SDS011;11010;49.548;11.926;2022-08-11T12:32:30;6.05;;;1.83;;
21697;SDS011;11010;49.548;11.926;2022-08-11T12:35:00;7.65;;;1.80;;
21697;SDS011;11010;49.548;11.926;2022-08-11T12:37:30;5.97;;;1.63;;
21697;SDS011;11010;49.548;11.926;2022-08-11T12:40:08;8.10;;;1.75;;
21697;SDS011;11010;49.548;11.926;2022-08-11T12:43:19;7.45;;;2.08;;
21697;SDS011;11010;49.548;11.926;2022-08-11T12:46:08;6.10;;;1.52;;
21697;SDS011;11010;49.548;11.926;2022-08-11T12:48:45;6.88;;;1.52;;
21697;SDS011;11010;49.548;11.926;2022-08-11T12:51:37;6.70;;;1.80;;
21697;SDS011;11010;49.548;11.926;2022-08-11T12:57:25;4.93;;;1.45;;
21697;SDS011;11010;49.548;11.926;2022-08-11T13:00:21;6.80;;;1.58;;
21697;SDS011;11010;49.548;11.926;2022-08-11T13:03:10;8.57;;;1.80;;
21697;SDS011;11010;49.548;11.926;2022-08-11T13:06:01;5.97;;;1.65;;
21697;SDS011;11010;49.548;11.926;2022-08-11T13:08:32;5.60;;;1.55;;
21697;SDS011;11010;49.548;11.926;2022-08-11T13:11:02;5.53;;;1.70;;
21697;SDS011;11010;49.548;11.926;2022-08-11T13:13:49;7.68;;;1.60;;
21697;SDS011;11010;49.548;11.926;2022-08-11T13:16:24;6.25;;;1.40;;
21697;SDS011;11010;49.548;11.926;2022-08-11T13:18:58;6.65;;;1.70;;
21697;SDS011;11010;49.548;11.926;2022-08-11T13:21:27;6.18;;;1.60;;
21697;SDS011;11010;49.548;11.926;2022-08-11T13:23:56;6.88;;;1.65;;
21697;SDS011;11010;49.548;11.926;2022-08-11T13:26:29;5.30;;;1.35;;
21697;SDS011;11010;49.548;11.926;2022-08-11T13:29:19;5.90;;;1.60;;
21697;SDS011;11010;49.548;11.926;2022-08-11T13:31:49;7.50;;;1.65;;
21697;SDS011;11010;49.548;11.926;2022-08-11T13:34:23;6.40;;;1.60;;
21697;SDS011;11010;49.548;11.926;2022-08-11T13:36:54;7.20;;;1.60;;
21697;SDS011;11010;49.548;11.926;2022-08-11T13:39:26;4.60;;;1.50;;
21697;SDS011;11010;49.548;11.926;2022-08-11T13:41:56;5.97;;;1.60;;
21697;SDS011;11010;49.548;11.926;2022-08-11T13:44:26;5.28;;;1.50;;
21697;SDS011;11010;49.548;11.926;2022-08-11T13:47:00;5.50;;;1.48;;
21697;SDS011;11010;49.548;11.926;2022-08-11T13:49:30;6.78;;;1.60;;
21697;SDS011;11010;49.548;11.926;2022-08-11T13:52:05;5.68;;;1.50;;
21697;SDS011;11010;49.548;11.926;2022-08-11T13:54:40;4.65;;;1.45;;
21697;SDS011;11010;49.548;11.926;2022-08-11T13:57:09;5.57;;;1.67;;
21697;SDS011;11010;49.548;11.926;2022-08-11T14:00:00;5.80;;;1.45;;
21697;SDS011;11010;49.548;11.926;2022-08-11T14:02:53;6.30;;;1.73;;
21697;SDS011;11010;49.548;11.926;2022-08-11T14:05:26;5.55;;;1.60;;
21697;SDS011;11010;49.548;11.926;2022-08-11T14:08:03;5.30;;;1.35;;
21697;SDS011;11010;49.548;11.926;2022-08-11T14:11:00;6.03;;;1.70;;
21697;SDS011;11010;49.548;11.926;2022-08-11T14:14:08;6.47;;;1.60;;
21697;SDS011;11010;49.548;11.926;2022-08-11T14:16:44;6.32;;;1.65;;
21697;SDS011;11010;49.548;11.926;2022-08-11T14:19:14;6.07;;;1.60;;
21697;SDS011;11010;49.548;11.926;2022-08-11T14:21:44;4.97;;;1.50;;
21697;SDS011;11010;49.548;11.926;2022-08-11T14:24:40;5.43;;;1.60;;
21697;SDS011;11010;49.548;11.926;2022-08-11T14:27:10;5.35;;;1.58;;
21697;SDS011;11010;49.548;11.926;2022-08-11T14:30:00;6.55;;;2.00;;
21697;SDS011;11010;49.548;11.926;2022-08-11T14:32:28;6.93;;;1.60;;
21697;SDS011;11010;49.548;11.926;2022-08-11T14:34:57;6.50;;;1.70;;
21697;SDS011;11010;49.548;11.926;2022-08-11T14:37:25;6.18;;;1.60;;
21697;SDS011;11010;49.548;11.926;2022-08-11T14:39:58;5.53;;;1.50;;
21697;SDS011;11010;49.548;11.926;2022-08-11T14:42:29;6.07;;;1.88;;
21697;SDS011;11010;49.548;11.926;2022-08-11T14:45:16;7.13;;;1.88;;
21697;SDS011;11010;49.548;11.926;2022-08-11T14:48:24;5.53;;;1.60;;
21697;SDS011;11010;49.548;11.926;2022-08-11T14:50:52;7.93;;;1.58;;
21697;SDS011;11010;49.548;11.926;2022-08-11T14:53:20;6.00;;;1.55;;
21697;SDS011;11010;49.548;11.926;2022-08-11T14:55:49;5.72;;;1.40;;
21697;SDS011;11010;49.548;11.926;2022-08-11T14:58:38;5.43;;;1.60;;
21697;SDS011;11010;49.548;11.926;2022-08-11T15:01:06;5.47;;;1.60;;
21697;SDS011;11010;49.548;11.926;2022-08-11T15:03:54;5.72;;;1.60;;
21697;SDS011;11010;49.548;11.926;2022-08-11T15:06:43;5.60;;;1.85;;
21697;SDS011;11010;49.548;11.926;2022-08-11T15:09:12;5.45;;;1.52;;
21697;SDS011;11010;49.548;11.926;2022-08-11T15:11:40;5.82;;;1.98;;
21697;SDS011;11010;49.548;11.926;2022-08-11T15:14:28;6.70;;;1.70;;
21697;SDS011;11010;49.548;11.926;2022-08-11T15:17:21;9.05;;;1.75;;
21697;SDS011;11010;49.548;11.926;2022-08-11T15:20:06;5.22;;;1.45;;
21697;SDS011;11010;49.548;11.926;2022-08-11T15:22:55;5.40;;;1.60;;
21697;SDS011;11010;49.548;11.926;2022-08-11T15:25:42;6.82;;;1.70;;
21697;SDS011;11010;49.548;11.926;2022-08-11T15:28:12;5.85;;;1.70;;
21697;SDS011;11010;49.548;11.926;2022-08-11T15:31:01;6.40;;;1.50;;
21697;SDS011;11010;49.548;11.926;2022-08-11T15:33:53;5.70;;;1.60;;
21697;SDS011;11010;49.548;11.926;2022-08-11T15:36:44;6.32;;;1.70;;
21697;SDS011;11010;49.548;11.926;2022-08-11T15:42:59;7.03;;;1.98;;
21697;SDS011;11010;49.548;11.926;2022-08-11T15:45:49;7.07;;;1.60;;
21697;SDS011;11010;49.548;11.926;2022-08-11T15:48:21;5.63;;;1.60;;
21697;SDS011;11010;49.548;11.926;2022-08-11T15:51:02;5.57;;;1.73;;
21697;SDS011;11010;49.548;11.926;2022-08-11T15:56:08;5.82;;;1.67;;
21697;SDS011;11010;49.548;11.926;2022-08-11T15:58:38;6.05;;;1.50;;
21697;SDS011;11010;49.548;11.926;2022-08-11T16:01:48;7.30;;;1.63;;
21697;SDS011;11010;49.548;11.926;2022-08-11T16:04:42;6.07;;;2.05;;
21697;SDS011;11010;49.548;11.926;2022-08-11T16:07:13;7.15;;;1.63;;
21697;SDS011;11010;49.548;11.926;2022-08-11T16:09:47;6.03;;;1.65;;
21697;SDS011;11010;49.548;11.926;2022-08-11T16:12:24;7.90;;;1.70;;
21697;SDS011;11010;49.548;11.926;2022-08-11T16:14:55;6.30;;;1.65;;
21697;SDS011;11010;49.548;11.926;2022-08-11T16:17:47;7.13;;;1.70;;
21697;SDS011;11010;49.548;11.926;2022-08-11T16:20:20;5.60;;;1.60;;
21697;SDS011;11010;49.548;11.926;2022-08-11T16:22:52;6.10;;;1.70;;
21697;SDS011;11010;49.548;11.926;2022-08-11T16:25:28;5.95;;;1.75;;
21697;SDS011;11010;49.548;11.926;2022-08-11T16:28:19;6.13;;;1.60;;
21697;SDS011;11010;49.548;11.926;2022-08-11T16:30:48;5.82;;;1.67;;
21697;SDS011;11010;49.548;11.926;2022-08-11T16:33:17;6.47;;;1.60;;
21697;SDS011;11010;49.548;11.926;2022-08-11T16:36:07;6.32;;;1.70;;
21697;SDS011;11010;49.548;11.926;2022-08-11T16:38:54;5.70;;;1.70;;
21697;SDS011;11010;49.548;11.926;2022-08-11T16:41:24;6.35;;;1.70;;
21697;SDS011;11010;49.548;11.926;2022-08-11T16:44:14;7.10;;;2.05;;
21697;SDS011;11010;49.548;11.926;2022-08-11T16:47:09;5.80;;;1.70;;
21697;SDS011;11010;49.548;11.926;2022-08-11T16:49:46;7.28;;;1.75;;
21697;SDS011;11010;49.548;11.926;2022-08-11T16:52:19;6.25;;;1.60;;
21697;SDS011;11010;49.548;11.926;2022-08-11T16:54:48;7.05;;;1.90;;
21697;SDS011;11010;49.548;11.926;2022-08-11T16:57:22;6.20;;;1.70;;
21697;SDS011;11010;49.548;11.926;2022-08-11T17:00:12;5.88;;;1.60;;
21697;SDS011;11010;49.548;11.926;2022-08-11T17:02:44;6.47;;;1.77;;
21697;SDS011;11010;49.548;11.926;2022-08-11T17:05:32;4.55;;;1.30;;
21697;SDS011;11010;49.548;11.926;2022-08-11T17:08:28;8.52;;;1.70;;
21697;SDS011;11010;49.548;11.926;2022-08-11T17:11:30;6.63;;;1.77;;
21697;SDS011;11010;49.548;11.926;2022-08-11T17:14:20;6.25;;;1.60;;
21697;SDS011;11010;49.548;11.926;2022-08-11T17:17:03;5.65;;;1.60;;
21697;SDS011;11010;49.548;11.926;2022-08-11T17:19:51;6.57;;;1.60;;
21697;SDS011;11010;49.548;11.926;2022-08-11T17:22:41;6.75;;;1.75;;
21697;SDS011;11010;49.548;11.926;2022-08-11T17:25:28;5.07;;;1.42;;
21697;SDS011;11010;49.548;11.926;2022-08-11T17:28:19;6.97;;;1.80;;
21697;SDS011;11010;49.548;11.926;2022-08-11T17:30:51;5.38;;;1.63;;
21697;SDS011;11010;49.548;11.926;2022-08-11T17:33:48;6.32;;;1.80;;
21697;SDS011;11010;49.548;11.926;2022-08-11T17:36:35;8.48;;;1.90;;
21697;SDS011;11010;49.548;11.926;2022-08-11T17:39:11;6.25;;;1.80;;
21697;SDS011;11010;49.548;11.926;2022-08-11T17:41:40;6.53;;;1.80;;
21697;SDS011;11010;49.548;11.926;2022-08-11T17:44:28;6.90;;;1.83;;
21697;SDS011;11010;49.548;11.926;2022-08-11T17:47:17;6.90;;;2.08;;
21697;SDS011;11010;49.548;11.926;2022-08-11T17:50:04;6.55;;;1.90;;
21697;SDS011;11010;49.548;11.926;2022-08-11T17:52:44;7.57;;;2.13;;
21697;SDS011;11010;49.548;11.926;2022-08-11T17:55:31;6.25;;;1.88;;
21697;SDS011;11010;49.548;11.926;2022-08-11T17:58:19;8.38;;;1.90;;
21697;SDS011;11010;49.548;11.926;2022-08-11T18:01:08;6.22;;;1.70;;
21697;SDS011;11010;49.548;11.926;2022-08-11T18:03:38;9.07;;;1.67;;
21697;SDS011;11010;49.548;11.926;2022-08-11T18:06:24;6.60;;;1.77;;
21697;SDS011;11010;49.548;11.926;2022-08-11T18:09:04;5.78;;;1.83;;
21697;SDS011;11010;49.548;11.926;2022-08-11T18:12:00;6.53;;;1.70;;
21697;SDS011;11010;49.548;11.926;2022-08-11T18:14:49;6.72;;;1.70;;
21697;SDS011;11010;49.548;11.926;2022-08-11T18:17:38;7.53;;;1.98;;
21697;SDS011;11010;49.548;11.926;2022-08-11T18:20:26;5.35;;;1.63;;
21697;SDS011;11010;49.548;11.926;2022-08-11T18:23:17;5.35;;;1.52;;
21697;SDS011;11010;49.548;11.926;2022-08-11T18:26:14;6.80;;;1.90;;
21697;SDS011;11010;49.548;11.926;2022-08-11T18:29:03;6.68;;;1.80;;
21697;SDS011;11010;49.548;11.926;2022-08-11T18:31:51;6.55;;;1.90;;
21697;SDS011;11010;49.548;11.926;2022-08-11T18:34:48;6.65;;;2.00;;
21697;SDS011;11010;49.548;11.926;2022-08-11T18:37:36;6.20;;;1.70;;
21697;SDS011;11010;49.548;11.926;2022-08-11T18:40:30;6.55;;;1.90;;
21697;SDS011;11010;49.548;11.926;2022-08-11T18:43:20;6.32;;;1.80;;
21697;SDS011;11010;49.548;11.926;2022-08-11T18:46:10;6.00;;;1.75;;
21697;SDS011;11010;49.548;11.926;2022-08-11T18:49:02;6.53;;;1.95;;
21697;SDS011;11010;49.548;11.926;2022-08-11T18:52:14;6.63;;;1.92;;
21697;SDS011;11010;49.548;11.926;2022-08-11T18:55:02;6.53;;;1.65;;
21697;SDS011;11010;49.548;11.926;2022-08-11T18:57:51;6.68;;;1.92;;
21697;SDS011;11010;49.548;11.926;2022-08-11T19:00:40;7.15;;;2.10;;
21697;SDS011;11010;49.548;11.926;2022-08-11T19:03:30;7.68;;;2.00;;
21697;SDS011;11010;49.548;11.926;2022-08-11T19:06:19;7.28;;;1.80;;
21697;SDS011;11010;49.548;11.926;2022-08-11T19:09:14;6.30;;;1.90;;
21697;SDS011;11010;49.548;11.926;2022-08-11T19:12:02;5.65;;;1.60;;
21697;SDS011;11010;49.548;11.926;2022-08-11T19:14:52;5.97;;;1.70;;
21697;SDS011;11010;49.548;11.926;2022-08-11T19:17:41;6.65;;;1.90;;
21697;SDS011;11010;49.548;11.926;2022-08-11T19:20:29;6.60;;;1.80;;
21697;SDS011;11010;49.548;11.926;2022-08-11T19:23:23;6.22;;;1.75;;
21697;SDS011;11010;49.548;11.926;2022-08-11T19:26:13;7.03;;;1.90;;
21697;SDS011;11010;49.548;11.926;2022-08-11T19:29:01;6.05;;;1.83;;
21697;SDS011;11010;49.548;11.926;2022-08-11T19:32:08;6.57;;;1.88;;
21697;SDS011;11010;49.548;11.926;2022-08-11T19:35:00;7.43;;;1.80;;
21697;SDS011;11010;49.548;11.926;2022-08-11T19:37:46;6.80;;;2.00;;
21697;SDS011;11010;49.548;11.926;2022-08-11T19:40:35;5.53;;;1.60;;
21697;SDS011;11010;49.548;11.926;2022-08-11T19:43:23;9.32;;;2.10;;
21697;SDS011;11010;49.548;11.926;2022-08-11T19:46:12;7.65;;;1.95;;
21697;SDS011;11010;49.548;11.926;2022-08-11T19:48:58;7.10;;;1.80;;
21697;SDS011;11010;49.548;11.926;2022-08-11T19:51:46;5.35;;;1.65;;
21697;SDS011;11010;49.548;11.926;2022-08-11T19:54:33;8.55;;;2.28;;
21697;SDS011;11010;49.548;11.926;2022-08-11T19:57:21;7.60;;;1.90;;
21697;SDS011;11010;49.548;11.926;2022-08-11T20:00:12;6.85;;;1.75;;
21697;SDS011;11010;49.548;11.926;2022-08-11T20:03:02;6.43;;;1.80;;
21697;SDS011;11010;49.548;11.926;2022-08-11T20:05:53;6.72;;;1.98;;